sensor_id;sensor_type;location;lat;lon;timestamp;noise_LAeq;noise_LA_min;noise_LA_max;noise_LA01;noise_LA95
43787;Laerm;29409;49.306;8.500;2024-03-25T00:00:18;41.67;35.94;53.91;;
43787;Laerm;29409;49.306;8.500;2024-03-25T00:01:20;38.96;34.69;42.71;;
43787;Laerm;29409;49.306;8.500;2024-03-25T00:02:21;39.04;35.04;45.99;;
43787;Laerm;29409;49.306;8.500;2024-03-25T00:03:21;39.02;35.04;43.14;;
43787;Laerm;29409;49.306;8.500;2024-03-25T00:04:21;38.89;35.04;42.09;;
43787;Laerm;29409;49.306;8.500;2024-03-25T00:05:23;38.88;35.36;43.51;;
43787;Laerm;29409;49.306;8.500;2024-03-25T00:06:25;39.34;34.69;42.64;;
43787;Laerm;29409;49.306;8.500;2024-03-25T00:07:26;39.76;35.94;42.47;;
43787;Laerm;29409;49.306;8.500;2024-03-25T00:08:26;39.59;35.36;41.89;;
43787;Laerm;29409;49.306;8.500;2024-03-25T00:09:26;39.86;35.66;46.40;;
43787;Laerm;29409;49.306;8.500;2024-03-25T00:10:28;39.54;35.94;42.98;;
43787;Laerm;29409;49.306;8.500;2024-03-25T00:11:28;39.05;35.36;41.89;;
43787;Laerm;29409;49.306;8.500;2024-03-25T00:12:28;39.46;35.36;51.98;;
43787;Laerm;29409;49.306;8.500;2024-03-25T00:13:29;39.63;34.69;43.54;;
43787;Laerm;29409;49.306;8.500;2024-03-25T00:14:29;39.93;36.20;44.58;;
43787;Laerm;29409;49.306;8.500;2024-03-25T00:15:30;39.44;35.94;41.89;;
43787;Laerm;29409;49.306;8.500;2024-03-25T00:16:34;39.82;35.94;46.78;;
43787;Laerm;29409;49.306;8.500;2024-03-25T00:17:34;39.46;35.94;43.09;;
43787;Laerm;29409;49.306;8.500;2024-03-25T00:18:34;39.89;35.94;44.87;;
43787;Laerm;29409;49.306;8.500;2024-03-25T00:19:35;40.11;36.91;44.54;;
43787;Laerm;29409;49.306;8.500;2024-03-25T00:20:35;40.12;37.32;43.86;;
43787;Laerm;29409;49.306;8.500;2024-03-25T00:21:35;40.06;36.91;42.65;;
43787;Laerm;29409;49.306;8.500;2024-03-25T00:22:35;40.37;36.69;43.29;;
43787;Laerm;29409;49.306;8.500;2024-03-25T00:23:36;39.57;36.20;44.07;;
43787;Laerm;29409;49.306;8.500;2024-03-25T00:24:36;39.41;36.45;42.16;;
43787;Laerm;29409;49.306;8.500;2024-03-25T00:25:37;40.08;36.20;47.24;;
43787;Laerm;29409;49.306;8.500;2024-03-25T00:26:37;39.44;35.66;42.09;;
43787;Laerm;29409;49.306;8.500;2024-03-25T00:27:37;39.54;35.66;43.29;;
43787;Laerm;29409;49.306;8.500;2024-03-25T00:28:38;39.33;35.94;43.77;;
43787;Laerm;29409;49.306;8.500;2024-03-25T00:29:38;39.88;35.94;43.94;;
43787;Laerm;29409;49.306;8.500;2024-03-25T00:30:38;39.85;35.94;55.16;;
43787;Laerm;29409;49.306;8.500;2024-03-25T00:31:39;39.68;35.36;47.68;;
43787;Laerm;29409;49.306;8.500;2024-03-25T00:32:39;41.13;36.91;45.27;;
43787;Laerm;29409;49.306;8.500;2024-03-25T00:33:42;39.80;35.66;49.00;;
43787;Laerm;29409;49.306;8.500;2024-03-25T00:34:42;39.74;36.20;47.16;;
43787;Laerm;29409;49.306;8.500;2024-03-25T00:35:43;40.23;35.04;45.14;;
43787;Laerm;29409;49.306;8.500;2024-03-25T00:36:45;40.67;36.20;44.62;;
43787;Laerm;29409;49.306;8.500;2024-03-25T00:37:46;40.65;36.69;43.19;;
43787;Laerm;29409;49.306;8.500;2024-03-25T00:38:46;40.26;37.32;42.41;;
43787;Laerm;29409;49.306;8.500;2024-03-25T00:39:47;40.37;36.91;43.39;;
43787;Laerm;29409;49.306;8.500;2024-03-25T00:40:47;40.45;35.36;44.27;;
43787;Laerm;29409;49.306;8.500;2024-03-25T00:41:47;39.81;36.20;42.59;;
43787;Laerm;29409;49.306;8.500;2024-03-25T00:42:48;40.29;36.20;47.00;;
43787;Laerm;29409;49.306;8.500;2024-03-25T00:43:49;39.33;35.36;42.09;;
43787;Laerm;29409;49.306;8.500;2024-03-25T00:44:50;38.97;35.04;42.65;;
43787;Laerm;29409;49.306;8.500;2024-03-25T00:45:50;39.25;35.36;42.09;;
43787;Laerm;29409;49.306;8.500;2024-03-25T00:46:51;39.35;35.94;41.96;;
43787;Laerm;29409;49.306;8.500;2024-03-25T00:47:51;40.15;35.36;44.76;;
43787;Laerm;29409;49.306;8.500;2024-03-25T00:48:52;39.15;35.36;42.47;;
43787;Laerm;29409;49.306;8.500;2024-03-25T00:49:52;39.72;36.45;43.44;;
43787;Laerm;29409;49.306;8.500;2024-03-25T00:50:53;39.77;35.36;42.93;;
43787;Laerm;29409;49.306;8.500;2024-03-25T00:51:53;39.70;35.66;42.16;;
43787;Laerm;29409;49.306;8.500;2024-03-25T00:52:53;39.66;36.45;42.53;;
43787;Laerm;29409;49.306;8.500;2024-03-25T00:53:54;39.41;36.20;42.19;;
43787;Laerm;29409;49.306;8.500;2024-03-25T00:54:54;39.53;35.66;43.99;;
43787;Laerm;29409;49.306;8.500;2024-03-25T00:55:54;40.26;35.94;46.07;;
43787;Laerm;29409;49.306;8.500;2024-03-25T00:56:55;39.62;35.66;43.72;;
43787;Laerm;29409;49.306;8.500;2024-03-25T00:57:55;39.09;35.36;41.53;;
43787;Laerm;29409;49.306;8.500;2024-03-25T00:58:55;40.94;36.69;47.37;;
43787;Laerm;29409;49.306;8.500;2024-03-25T00:59:57;39.38;35.36;44.15;;
43787;Laerm;29409;49.306;8.500;2024-03-25T01:00:57;39.70;35.66;45.04;;
43787;Laerm;29409;49.306;8.500;2024-03-25T01:01:58;40.10;35.94;45.66;;
43787;Laerm;29409;49.306;8.500;2024-03-25T01:02:58;40.57;37.12;48.59;;
43787;Laerm;29409;49.306;8.500;2024-03-25T01:03:58;39.25;35.36;41.75;;
43787;Laerm;29409;49.306;8.500;2024-03-25T01:05:00;39.22;35.04;41.89;;
43787;Laerm;29409;49.306;8.500;2024-03-25T01:06:00;39.76;36.91;42.09;;
43787;Laerm;29409;49.306;8.500;2024-03-25T01:07:01;40.80;35.94;43.34;;
43787;Laerm;29409;49.306;8.500;2024-03-25T01:08:01;40.63;36.91;48.61;;
43787;Laerm;29409;49.306;8.500;2024-03-25T01:09:01;39.47;35.94;42.41;;
43787;Laerm;29409;49.306;8.500;2024-03-25T01:10:02;39.64;35.94;42.88;;
43787;Laerm;29409;49.306;8.500;2024-03-25T01:11:02;39.11;35.36;41.61;;
43787;Laerm;29409;49.306;8.500;2024-03-25T01:12:03;39.23;35.66;42.16;;
43787;Laerm;29409;49.306;8.500;2024-03-25T01:13:03;39.43;35.36;43.63;;
43787;Laerm;29409;49.306;8.500;2024-03-25T01:14:03;39.77;35.36;51.82;;
43787;Laerm;29409;49.306;8.500;2024-03-25T01:15:04;39.29;34.69;42.53;;
43787;Laerm;29409;49.306;8.500;2024-03-25T01:16:05;39.53;35.94;48.12;;
43787;Laerm;29409;49.306;8.500;2024-03-25T01:17:07;39.86;37.17;41.89;;
43787;Laerm;29409;49.306;8.500;2024-03-25T01:18:07;39.98;36.45;43.29;;
43787;Laerm;29409;49.306;8.500;2024-03-25T01:19:08;39.98;35.66;47.14;;
43787;Laerm;29409;49.306;8.500;2024-03-25T01:20:09;39.17;35.94;42.35;;
43787;Laerm;29409;49.306;8.500;2024-03-25T01:21:11;39.71;35.94;42.41;;
43787;Laerm;29409;49.306;8.500;2024-03-25T01:22:11;39.84;36.20;42.03;;
43787;Laerm;29409;49.306;8.500;2024-03-25T01:23:12;39.64;36.20;42.09;;
43787;Laerm;29409;49.306;8.500;2024-03-25T01:24:12;39.06;34.69;41.82;;
43787;Laerm;29409;49.306;8.500;2024-03-25T01:25:12;39.25;36.20;41.75;;
43787;Laerm;29409;49.306;8.500;2024-03-25T01:26:13;39.47;35.66;42.41;;
43787;Laerm;29409;49.306;8.500;2024-03-25T01:27:13;39.16;35.66;42.88;;
43787;Laerm;29409;49.306;8.500;2024-03-25T01:28:13;38.91;35.94;42.09;;
43787;Laerm;29409;49.306;8.500;2024-03-25T01:29:14;38.95;35.66;41.53;;
43787;Laerm;29409;49.306;8.500;2024-03-25T01:30:14;39.05;35.94;41.82;;
43787;Laerm;29409;49.306;8.500;2024-03-25T01:31:14;38.82;34.69;42.09;;
43787;Laerm;29409;49.306;8.500;2024-03-25T01:32:15;38.96;35.36;41.61;;
43787;Laerm;29409;49.306;8.500;2024-03-25T01:33:15;39.81;35.66;42.41;;
43787;Laerm;29409;49.306;8.500;2024-03-25T01:34:15;39.66;35.94;43.34;;
43787;Laerm;29409;49.306;8.500;2024-03-25T01:35:16;39.85;36.20;44.39;;
43787;Laerm;29409;49.306;8.500;2024-03-25T01:36:16;39.63;36.45;41.89;;
43787;Laerm;29409;49.306;8.500;2024-03-25T01:37:17;39.30;35.04;41.96;;
43787;Laerm;29409;49.306;8.500;2024-03-25T01:38:18;39.47;35.36;43.77;;
43787;Laerm;29409;49.306;8.500;2024-03-25T01:39:18;39.39;35.36;44.07;;
43787;Laerm;29409;49.306;8.500;2024-03-25T01:40:18;39.36;36.45;41.75;;
43787;Laerm;29409;49.306;8.500;2024-03-25T01:41:21;39.44;35.04;41.96;;
43787;Laerm;29409;49.306;8.500;2024-03-25T01:42:24;39.14;36.20;41.75;;
43787;Laerm;29409;49.306;8.500;2024-03-25T01:43:25;39.43;35.36;43.58;;
43787;Laerm;29409;49.306;8.500;2024-03-25T01:44:25;39.29;35.94;44.35;;
43787;Laerm;29409;49.306;8.500;2024-03-25T01:45:25;39.22;35.94;41.68;;
43787;Laerm;29409;49.306;8.500;2024-03-25T01:46:27;39.32;36.20;41.61;;
43787;Laerm;29409;49.306;8.500;2024-03-25T01:47:28;39.50;36.20;43.37;;
43787;Laerm;29409;49.306;8.500;2024-03-25T01:48:28;39.27;35.36;43.04;;
43787;Laerm;29409;49.306;8.500;2024-03-25T01:49:29;39.03;35.66;41.22;;
43787;Laerm;29409;49.306;8.500;2024-03-25T01:50:30;39.51;36.45;41.82;;
43787;Laerm;29409;49.306;8.500;2024-03-25T01:51:30;39.38;36.20;41.96;;
43787;Laerm;29409;49.306;8.500;2024-03-25T01:52:32;39.03;34.69;41.22;;
43787;Laerm;29409;49.306;8.500;2024-03-25T01:53:33;42.19;34.69;48.02;;
43787;Laerm;29409;49.306;8.500;2024-03-25T01:54:34;41.86;37.52;45.83;;
43787;Laerm;29409;49.306;8.500;2024-03-25T01:55:34;40.92;35.94;60.84;;
43787;Laerm;29409;49.306;8.500;2024-03-25T01:56:35;39.37;35.66;47.40;;
43787;Laerm;29409;49.306;8.500;2024-03-25T01:57:36;40.03;35.36;62.90;;
43787;Laerm;29409;49.306;8.500;2024-03-25T01:58:38;39.24;35.66;43.04;;
43787;Laerm;29409;49.306;8.500;2024-03-25T01:59:39;39.20;35.04;42.47;;
43787;Laerm;29409;49.306;8.500;2024-03-25T02:00:39;39.45;35.36;41.82;;
43787;Laerm;29409;49.306;8.500;2024-03-25T02:01:40;39.20;35.36;41.46;;
43787;Laerm;29409;49.306;8.500;2024-03-25T02:02:43;39.12;35.94;41.30;;
43787;Laerm;29409;49.306;8.500;2024-03-25T02:03:47;39.29;35.36;41.46;;
43787;Laerm;29409;49.306;8.500;2024-03-25T02:04:47;39.89;35.94;41.96;;
43787;Laerm;29409;49.306;8.500;2024-03-25T02:05:55;39.83;36.45;42.09;;
43787;Laerm;29409;49.306;8.500;2024-03-25T02:06:56;41.18;37.32;44.69;;
43787;Laerm;29409;49.306;8.500;2024-03-25T02:07:59;39.97;36.69;42.22;;
43787;Laerm;29409;49.306;8.500;2024-03-25T02:09:00;39.79;35.94;53.92;;
43787;Laerm;29409;49.306;8.500;2024-03-25T02:10:02;39.95;36.91;42.29;;
43787;Laerm;29409;49.306;8.500;2024-03-25T02:11:03;39.51;35.36;41.82;;
43787;Laerm;29409;49.306;8.500;2024-03-25T02:12:04;39.39;36.20;41.82;;
43787;Laerm;29409;49.306;8.500;2024-03-25T02:13:05;39.21;35.66;41.75;;
43787;Laerm;29409;49.306;8.500;2024-03-25T02:14:05;40.41;35.36;46.82;;
43787;Laerm;29409;49.306;8.500;2024-03-25T02:15:06;39.67;36.20;41.96;;
43787;Laerm;29409;49.306;8.500;2024-03-25T02:16:07;39.93;36.69;42.29;;
43787;Laerm;29409;49.306;8.500;2024-03-25T02:17:08;39.66;35.94;41.82;;
43787;Laerm;29409;49.306;8.500;2024-03-25T02:18:09;39.70;35.66;42.47;;
43787;Laerm;29409;49.306;8.500;2024-03-25T02:19:09;39.74;35.66;42.71;;
43787;Laerm;29409;49.306;8.500;2024-03-25T02:20:14;40.52;36.20;46.64;;
43787;Laerm;29409;49.306;8.500;2024-03-25T02:21:15;39.63;36.45;42.29;;
43787;Laerm;29409;49.306;8.500;2024-03-25T02:22:16;39.77;36.91;43.46;;
43787;Laerm;29409;49.306;8.500;2024-03-25T02:23:16;39.27;35.94;42.35;;
43787;Laerm;29409;49.306;8.500;2024-03-25T02:24:17;39.16;35.04;41.22;;
43787;Laerm;29409;49.306;8.500;2024-03-25T02:25:19;39.58;35.66;44.97;;
43787;Laerm;29409;49.306;8.500;2024-03-25T02:26:21;39.20;36.20;41.82;;
43787;Laerm;29409;49.306;8.500;2024-03-25T02:27:26;39.60;35.36;45.11;;
43787;Laerm;29409;49.306;8.500;2024-03-25T02:28:32;39.07;35.94;41.38;;
43787;Laerm;29409;49.306;8.500;2024-03-25T02:29:32;40.12;36.69;44.80;;
43787;Laerm;29409;49.306;8.500;2024-03-25T02:30:33;39.97;36.45;42.09;;
43787;Laerm;29409;49.306;8.500;2024-03-25T02:31:33;39.87;35.94;42.35;;
43787;Laerm;29409;49.306;8.500;2024-03-25T02:32:34;39.78;36.45;42.59;;
43787;Laerm;29409;49.306;8.500;2024-03-25T02:33:34;39.95;36.69;44.03;;
43787;Laerm;29409;49.306;8.500;2024-03-25T02:34:35;39.66;36.45;41.89;;
43787;Laerm;29409;49.306;8.500;2024-03-25T02:35:35;39.86;36.98;42.41;;
43787;Laerm;29409;49.306;8.500;2024-03-25T02:36:36;40.19;36.20;47.50;;
43787;Laerm;29409;49.306;8.500;2024-03-25T02:37:37;39.73;36.45;42.09;;
43787;Laerm;29409;49.306;8.500;2024-03-25T02:38:39;39.84;36.45;42.03;;
43787;Laerm;29409;49.306;8.500;2024-03-25T02:39:39;39.41;35.66;42.16;;
43787;Laerm;29409;49.306;8.500;2024-03-25T02:40:40;39.31;35.66;41.75;;
43787;Laerm;29409;49.306;8.500;2024-03-25T02:41:40;39.52;35.66;42.35;;
43787;Laerm;29409;49.306;8.500;2024-03-25T02:42:40;39.76;36.20;42.59;;
43787;Laerm;29409;49.306;8.500;2024-03-25T02:43:41;39.46;35.66;41.89;;
43787;Laerm;29409;49.306;8.500;2024-03-25T02:44:41;39.15;36.20;41.75;;
43787;Laerm;29409;49.306;8.500;2024-03-25T02:45:43;39.06;35.04;41.68;;
43787;Laerm;29409;49.306;8.500;2024-03-25T02:46:43;39.84;35.66;45.67;;
43787;Laerm;29409;49.306;8.500;2024-03-25T02:47:45;39.24;35.66;43.09;;
43787;Laerm;29409;49.306;8.500;2024-03-25T02:48:45;39.68;35.66;45.04;;
43787;Laerm;29409;49.306;8.500;2024-03-25T02:49:46;39.04;35.66;41.75;;
43787;Laerm;29409;49.306;8.500;2024-03-25T02:50:46;39.36;35.94;41.82;;
43787;Laerm;29409;49.306;8.500;2024-03-25T02:51:47;39.34;36.45;41.75;;
43787;Laerm;29409;49.306;8.500;2024-03-25T02:52:47;39.23;34.69;41.96;;
43787;Laerm;29409;49.306;8.500;2024-03-25T02:53:47;38.91;35.04;41.61;;
43787;Laerm;29409;49.306;8.500;2024-03-25T02:54:47;39.10;34.69;44.51;;
43787;Laerm;29409;49.306;8.500;2024-03-25T02:55:49;38.96;35.66;41.53;;
43787;Laerm;29409;49.306;8.500;2024-03-25T02:56:49;39.08;34.31;41.30;;
43787;Laerm;29409;49.306;8.500;2024-03-25T02:57:49;39.29;35.66;42.09;;
43787;Laerm;29409;49.306;8.500;2024-03-25T02:58:50;39.17;34.69;41.38;;
43787;Laerm;29409;49.306;8.500;2024-03-25T02:59:50;38.94;35.94;41.30;;
43787;Laerm;29409;49.306;8.500;2024-03-25T03:00:50;39.28;35.94;41.61;;
43787;Laerm;29409;49.306;8.500;2024-03-25T03:01:51;39.20;36.20;41.96;;
43787;Laerm;29409;49.306;8.500;2024-03-25T03:02:51;39.12;35.66;43.19;;
43787;Laerm;29409;49.306;8.500;2024-03-25T03:03:51;40.50;34.69;49.33;;
43787;Laerm;29409;49.306;8.500;2024-03-25T03:04:52;40.14;36.20;43.77;;
43787;Laerm;29409;49.306;8.500;2024-03-25T03:05:52;39.67;35.94;41.89;;
43787;Laerm;29409;49.306;8.500;2024-03-25T03:06:52;39.23;35.94;41.46;;
43787;Laerm;29409;49.306;8.500;2024-03-25T03:07:53;39.57;35.94;41.82;;
43787;Laerm;29409;49.306;8.500;2024-03-25T03:08:53;40.73;36.20;49.74;;
43787;Laerm;29409;49.306;8.500;2024-03-25T03:09:53;38.97;35.36;43.54;;
43787;Laerm;29409;49.306;8.500;2024-03-25T03:10:54;39.86;35.36;45.14;;
43787;Laerm;29409;49.306;8.500;2024-03-25T03:11:54;41.83;35.94;51.33;;
43787;Laerm;29409;49.306;8.500;2024-03-25T03:12:55;38.70;35.04;41.96;;
43787;Laerm;29409;49.306;8.500;2024-03-25T03:13:55;38.61;35.04;42.29;;
43787;Laerm;29409;49.306;8.500;2024-03-25T03:14:55;38.58;34.69;41.46;;
43787;Laerm;29409;49.306;8.500;2024-03-25T03:15:55;40.48;33.44;50.64;;
43787;Laerm;29409;49.306;8.500;2024-03-25T03:16:56;39.22;35.36;42.35;;
43787;Laerm;29409;49.306;8.500;2024-03-25T03:17:58;38.86;35.36;41.53;;
43787;Laerm;29409;49.306;8.500;2024-03-25T03:18:58;39.02;35.04;41.22;;
43787;Laerm;29409;49.306;8.500;2024-03-25T03:19:58;39.40;35.66;41.61;;
43787;Laerm;29409;49.306;8.500;2024-03-25T03:20:59;40.38;35.66;43.24;;
43787;Laerm;29409;49.306;8.500;2024-03-25T03:21:59;40.78;36.91;46.87;;
43787;Laerm;29409;49.306;8.500;2024-03-25T03:22:59;39.86;35.66;42.06;;
43787;Laerm;29409;49.306;8.500;2024-03-25T03:24:00;39.43;35.94;41.68;;
43787;Laerm;29409;49.306;8.500;2024-03-25T03:25:00;39.38;34.69;41.61;;
43787;Laerm;29409;49.306;8.500;2024-03-25T03:26:00;39.55;35.94;41.82;;
43787;Laerm;29409;49.306;8.500;2024-03-25T03:27:01;40.69;37.12;48.69;;
43787;Laerm;29409;49.306;8.500;2024-03-25T03:28:02;39.53;35.94;42.16;;
43787;Laerm;29409;49.306;8.500;2024-03-25T03:29:03;39.56;36.20;41.75;;
43787;Laerm;29409;49.306;8.500;2024-03-25T03:30:03;43.43;36.91;55.92;;
43787;Laerm;29409;49.306;8.500;2024-03-25T03:31:03;43.13;37.70;52.15;;
43787;Laerm;29409;49.306;8.500;2024-03-25T03:32:04;39.89;36.45;42.29;;
43787;Laerm;29409;49.306;8.500;2024-03-25T03:33:04;39.45;35.94;42.03;;
43787;Laerm;29409;49.306;8.500;2024-03-25T03:34:04;39.57;35.94;41.61;;
43787;Laerm;29409;49.306;8.500;2024-03-25T03:35:05;39.55;35.36;41.82;;
43787;Laerm;29409;49.306;8.500;2024-03-25T03:36:05;40.68;36.45;45.91;;
43787;Laerm;29409;49.306;8.500;2024-03-25T03:37:05;45.17;40.62;53.96;;
43787;Laerm;29409;49.306;8.500;2024-03-25T03:38:06;42.31;38.21;45.75;;
43787;Laerm;29409;49.306;8.500;2024-03-25T03:39:06;43.93;38.81;53.03;;
43787;Laerm;29409;49.306;8.500;2024-03-25T03:40:09;40.24;36.45;42.82;;
43787;Laerm;29409;49.306;8.500;2024-03-25T03:41:11;39.86;36.45;45.27;;
43787;Laerm;29409;49.306;8.500;2024-03-25T03:42:11;40.91;36.45;50.72;;
43787;Laerm;29409;49.306;8.500;2024-03-25T03:43:21;39.47;35.94;41.75;;
43787;Laerm;29409;49.306;8.500;2024-03-25T03:44:21;39.50;35.94;41.68;;
43787;Laerm;29409;49.306;8.500;2024-03-25T03:45:24;39.77;36.45;42.09;;
43787;Laerm;29409;49.306;8.500;2024-03-25T03:46:24;39.74;35.94;42.22;;
43787;Laerm;29409;49.306;8.500;2024-03-25T03:47:25;39.55;35.94;42.03;;
43787;Laerm;29409;49.306;8.500;2024-03-25T03:48:25;41.06;36.91;44.90;;
43787;Laerm;29409;49.306;8.500;2024-03-25T03:49:26;41.33;37.32;47.61;;
43787;Laerm;29409;49.306;8.500;2024-03-25T03:50:26;40.03;36.91;41.96;;
43787;Laerm;29409;49.306;8.500;2024-03-25T03:51:27;39.74;35.66;42.13;;
43787;Laerm;29409;49.306;8.500;2024-03-25T03:52:27;40.39;36.20;47.36;;
43787;Laerm;29409;49.306;8.500;2024-03-25T03:53:28;39.40;36.45;41.61;;
43787;Laerm;29409;49.306;8.500;2024-03-25T03:54:28;40.28;37.12;45.72;;
43787;Laerm;29409;49.306;8.500;2024-03-25T03:55:28;40.28;36.20;46.84;;
43787;Laerm;29409;49.306;8.500;2024-03-25T03:56:29;39.60;35.94;45.14;;
43787;Laerm;29409;49.306;8.500;2024-03-25T03:57:30;39.85;35.94;45.30;;
43787;Laerm;29409;49.306;8.500;2024-03-25T03:58:32;39.54;35.36;43.44;;
43787;Laerm;29409;49.306;8.500;2024-03-25T03:59:32;44.13;36.34;60.13;;
43787;Laerm;29409;49.306;8.500;2024-03-25T04:00:33;45.92;39.08;59.61;;
43787;Laerm;29409;49.306;8.500;2024-03-25T04:01:35;40.83;36.20;44.90;;
43787;Laerm;29409;49.306;8.500;2024-03-25T04:02:36;40.33;36.77;44.87;;
43787;Laerm;29409;49.306;8.500;2024-03-25T04:03:36;39.37;35.94;41.61;;
43787;Laerm;29409;49.306;8.500;2024-03-25T04:04:36;40.91;36.45;47.18;;
43787;Laerm;29409;49.306;8.500;2024-03-25T04:05:36;40.22;36.69;44.39;;
43787;Laerm;29409;49.306;8.500;2024-03-25T04:06:37;40.97;37.52;46.25;;
43787;Laerm;29409;49.306;8.500;2024-03-25T04:07:40;40.10;36.91;43.94;;
43787;Laerm;29409;49.306;8.500;2024-03-25T04:08:40;41.00;36.91;47.61;;
43787;Laerm;29409;49.306;8.500;2024-03-25T04:09:41;40.44;35.94;44.80;;
43787;Laerm;29409;49.306;8.500;2024-03-25T04:10:42;40.23;37.32;43.14;;
43787;Laerm;29409;49.306;8.500;2024-03-25T04:11:43;42.22;36.91;46.95;;
43787;Laerm;29409;49.306;8.500;2024-03-25T04:12:43;40.96;37.12;45.42;;
43787;Laerm;29409;49.306;8.500;2024-03-25T04:13:43;40.63;35.66;45.14;;
43787;Laerm;29409;49.306;8.500;2024-03-25T04:27:47;40.86;37.70;45.51;;
43787;Laerm;29409;49.306;8.500;2024-03-25T04:28:47;40.35;37.70;42.22;;
43787;Laerm;29409;49.306;8.500;2024-03-25T04:29:47;41.21;38.05;47.28;;
43787;Laerm;29409;49.306;8.500;2024-03-25T04:30:52;41.19;37.32;50.03;;
43787;Laerm;29409;49.306;8.500;2024-03-25T04:31:52;40.93;38.37;45.14;;
43787;Laerm;29409;49.306;8.500;2024-03-25T04:32:53;41.95;38.81;50.07;;
43787;Laerm;29409;49.306;8.500;2024-03-25T04:33:53;40.41;37.12;42.16;;
43787;Laerm;29409;49.306;8.500;2024-03-25T04:34:53;40.72;37.70;45.54;;
43787;Laerm;29409;49.306;8.500;2024-03-25T04:35:53;41.09;38.02;48.94;;
43787;Laerm;29409;49.306;8.500;2024-03-25T04:36:55;41.30;37.52;45.30;;
43787;Laerm;29409;49.306;8.500;2024-03-25T04:37:55;41.48;37.88;49.52;;
43787;Laerm;29409;49.306;8.500;2024-03-25T04:38:55;42.70;38.95;52.23;;
43787;Laerm;29409;49.306;8.500;2024-03-25T04:39:56;41.85;38.67;47.52;;
43787;Laerm;29409;49.306;8.500;2024-03-25T04:40:57;41.77;39.08;46.82;;
43787;Laerm;29409;49.306;8.500;2024-03-25T04:41:57;44.12;40.33;51.99;;
43787;Laerm;29409;49.306;8.500;2024-03-25T04:42:57;43.69;39.46;49.67;;
43787;Laerm;29409;49.306;8.500;2024-03-25T04:43:58;41.99;38.95;45.27;;
43787;Laerm;29409;49.306;8.500;2024-03-25T04:44:58;41.66;38.37;45.91;;
43787;Laerm;29409;49.306;8.500;2024-03-25T04:46:01;42.85;39.34;51.06;;
43787;Laerm;29409;49.306;8.500;2024-03-25T04:47:02;42.29;38.95;52.74;;
43787;Laerm;29409;49.306;8.500;2024-03-25T04:48:02;48.26;38.81;66.69;;
43787;Laerm;29409;49.306;8.500;2024-03-25T04:49:02;42.13;38.95;46.20;;
43787;Laerm;29409;49.306;8.500;2024-03-25T04:50:03;43.57;38.67;51.54;;
43787;Laerm;29409;49.306;8.500;2024-03-25T04:51:03;43.93;39.70;51.54;;
43787;Laerm;29409;49.306;8.500;2024-03-25T04:52:04;42.64;38.05;49.59;;
43787;Laerm;29409;49.306;8.500;2024-03-25T04:53:04;42.41;38.99;49.83;;
43787;Laerm;29409;49.306;8.500;2024-03-25T04:54:04;41.92;38.21;50.37;;
43787;Laerm;29409;49.306;8.500;2024-03-25T04:55:05;41.87;37.88;48.66;;
43787;Laerm;29409;49.306;8.500;2024-03-25T04:56:05;42.10;37.70;52.16;;
43787;Laerm;29409;49.306;8.500;2024-03-25T04:57:06;41.33;37.52;51.50;;
43787;Laerm;29409;49.306;8.500;2024-03-25T04:58:06;41.25;37.12;52.23;;
43787;Laerm;29409;49.306;8.500;2024-03-25T04:59:06;41.72;38.52;47.30;;
43787;Laerm;29409;49.306;8.500;2024-03-25T05:00:07;41.78;38.52;51.84;;
43787;Laerm;29409;49.306;8.500;2024-03-25T05:01:10;44.90;38.95;53.56;;
43787;Laerm;29409;49.306;8.500;2024-03-25T05:02:11;43.13;39.21;51.16;;
43787;Laerm;29409;49.306;8.500;2024-03-25T05:03:11;43.67;40.43;52.39;;
43787;Laerm;29409;49.306;8.500;2024-03-25T05:04:11;43.11;39.58;49.75;;
43787;Laerm;29409;49.306;8.500;2024-03-25T05:05:12;44.79;39.34;55.18;;
43787;Laerm;29409;49.306;8.500;2024-03-25T05:06:12;45.97;39.68;58.79;;
43787;Laerm;29409;49.306;8.500;2024-03-25T05:07:12;45.05;39.70;54.94;;
43787;Laerm;29409;49.306;8.500;2024-03-25T05:08:14;44.34;40.23;54.44;;
43787;Laerm;29409;49.306;8.500;2024-03-25T05:09:15;43.26;39.34;48.77;;
43787;Laerm;29409;49.306;8.500;2024-03-25T05:10:16;44.60;40.13;52.22;;
43787;Laerm;29409;49.306;8.500;2024-03-25T05:11:16;44.81;39.34;52.54;;
43787;Laerm;29409;49.306;8.500;2024-03-25T05:12:17;42.98;38.95;50.77;;
43787;Laerm;29409;49.306;8.500;2024-03-25T05:13:17;42.24;38.67;48.02;;
43787;Laerm;29409;49.306;8.500;2024-03-25T05:14:17;42.38;39.46;48.73;;
43787;Laerm;29409;49.306;8.500;2024-03-25T05:15:17;44.16;39.58;60.00;;
43787;Laerm;29409;49.306;8.500;2024-03-25T05:16:18;48.01;38.67;61.48;;
43787;Laerm;29409;49.306;8.500;2024-03-25T05:17:18;43.56;39.08;57.60;;
43787;Laerm;29409;49.306;8.500;2024-03-25T05:18:19;50.95;39.46;67.39;;
43787;Laerm;29409;49.306;8.500;2024-03-25T05:19:19;44.01;38.95;51.89;;
43787;Laerm;29409;49.306;8.500;2024-03-25T05:20:19;43.61;40.03;54.71;;
43787;Laerm;29409;49.306;8.500;2024-03-25T05:21:20;43.39;40.33;58.76;;
43787;Laerm;29409;49.306;8.500;2024-03-25T05:22:21;43.63;39.81;56.35;;
43787;Laerm;29409;49.306;8.500;2024-03-25T05:23:21;43.78;38.81;58.43;;
43787;Laerm;29409;49.306;8.500;2024-03-25T05:24:22;42.54;39.81;46.38;;
43787;Laerm;29409;49.306;8.500;2024-03-25T05:25:23;43.22;40.43;50.25;;
43787;Laerm;29409;49.306;8.500;2024-03-25T05:26:28;42.77;39.81;54.31;;
43787;Laerm;29409;49.306;8.500;2024-03-25T05:27:29;44.94;40.33;67.38;;
43787;Laerm;29409;49.306;8.500;2024-03-25T05:28:32;46.31;39.81;58.62;;
43787;Laerm;29409;49.306;8.500;2024-03-25T05:29:33;46.31;39.58;60.24;;
43787;Laerm;29409;49.306;8.500;2024-03-25T05:30:33;46.57;41.61;58.74;;
43787;Laerm;29409;49.306;8.500;2024-03-25T05:31:33;45.19;40.53;57.25;;
43787;Laerm;29409;49.306;8.500;2024-03-25T05:32:33;45.59;39.99;57.77;;
43787;Laerm;29409;49.306;8.500;2024-03-25T05:33:34;46.92;40.13;70.94;;
43787;Laerm;29409;49.306;8.500;2024-03-25T05:34:34;48.02;40.43;60.58;;
43787;Laerm;29409;49.306;8.500;2024-03-25T05:35:34;43.16;40.33;49.79;;
43787;Laerm;29409;49.306;8.500;2024-03-25T05:36:36;42.71;40.43;47.22;;
43787;Laerm;29409;49.306;8.500;2024-03-25T05:37:36;43.83;39.08;49.08;;
43787;Laerm;29409;49.306;8.500;2024-03-25T05:38:37;43.09;40.03;49.74;;
43787;Laerm;29409;49.306;8.500;2024-03-25T05:39:38;43.06;40.03;50.54;;
43787;Laerm;29409;49.306;8.500;2024-03-25T05:40:39;47.24;39.92;60.91;;
43787;Laerm;29409;49.306;8.500;2024-03-25T05:41:39;45.18;39.58;55.48;;
43787;Laerm;29409;49.306;8.500;2024-03-25T05:42:39;46.42;40.53;60.58;;
43787;Laerm;29409;49.306;8.500;2024-03-25T05:43:40;43.63;39.78;53.46;;
43787;Laerm;29409;49.306;8.500;2024-03-25T05:44:40;42.72;40.03;50.68;;
43787;Laerm;29409;49.306;8.500;2024-03-25T05:45:40;44.45;40.89;59.00;;
43787;Laerm;29409;49.306;8.500;2024-03-25T05:46:41;44.32;40.98;55.85;;
43787;Laerm;29409;49.306;8.500;2024-03-25T05:47:42;47.30;40.13;57.17;;
43787;Laerm;29409;49.306;8.500;2024-03-25T05:48:42;43.44;40.23;50.00;;
43787;Laerm;29409;49.306;8.500;2024-03-25T05:49:46;43.48;39.58;56.63;;
43787;Laerm;29409;49.306;8.500;2024-03-25T05:50:46;43.10;39.92;51.09;;
43787;Laerm;29409;49.306;8.500;2024-03-25T05:51:46;43.28;39.68;52.33;;
43787;Laerm;29409;49.306;8.500;2024-03-25T05:52:47;42.94;39.81;49.65;;